Time;durP1;ratioP1;P1;durP2;ratioP2;P2;SDS_P1;SDS_P2;PMS_P1;PMS_P2;Temp;Humidity;BMP_temperature;BMP_pressure;BME280_temperature;BME280_humidity;BME280_pressure;Samples;Min_cycle;Max_cycle;Signal;HPM_P1;HPM_P2
2023/05/26 00:01:02;;;;;;;18.33;5.87;;;13.40;71.00;;;16.08;49.42;102801.19;5037675;28;20298;-63
2023/05/26 00:03:29;;;;;;;20.67;6.00;;;13.30;70.90;;;16.06;49.57;102798.69;5045942;28;20252;-63
2023/05/26 00:05:56;;;;;;;21.63;5.90;;;13.30;71.10;;;16.03;49.66;102793.69;5053406;28;20214;-62
2023/05/26 00:08:23;;;;;;;18.73;6.07;;;13.30;71.10;;;16.02;49.77;102810.59;5054135;28;20194;-63
2023/05/26 00:10:51;;;;;;;18.60;5.80;;;13.20;71.10;;;16.01;49.62;102810.78;5046303;28;20689;-63
2023/05/26 00:13:19;;;;;;;22.00;6.37;;;13.20;71.20;;;16.01;49.67;102806.31;5033120;28;20245;-63
2023/05/26 00:15:46;;;;;;;15.50;5.20;;;13.20;71.20;;;15.99;49.71;102810.94;5050381;28;20682;-63
2023/05/26 00:18:13;;;;;;;19.07;5.37;;;13.20;71.20;;;15.98;49.74;102806.59;5054406;28;20201;-62
2023/05/26 00:20:40;;;;;;;10.93;5.13;;;13.20;71.10;;;15.95;49.58;102806.91;5034547;28;20198;-62
2023/05/26 00:23:07;;;;;;;18.40;4.93;;;13.20;71.20;;;15.94;49.72;102804.44;5033856;28;20194;-64
2023/05/26 00:25:34;;;;;;;18.63;5.23;;;13.10;70.80;;;15.90;49.72;102806.56;5037712;28;20222;-62
2023/05/26 00:28:01;;;;;;;15.57;5.67;;;13.10;71.10;;;15.90;49.87;102811.88;5049613;28;20292;-62
2023/05/26 00:30:30;;;;;;;14.23;5.17;;;13.10;71.30;;;15.91;49.88;102808.25;5054391;28;20185;-62
2023/05/26 00:32:57;;;;;;;18.13;5.27;;;13.10;71.20;;;15.90;49.74;102813.72;5053414;28;20245;-62
2023/05/26 00:35:24;;;;;;;22.17;6.30;;;13.10;71.10;;;15.88;49.71;102811.19;5053897;28;20707;-61
2023/05/26 00:37:51;;;;;;;19.63;6.07;;;13.10;71.10;;;15.87;49.64;102814.88;5054117;28;20412;-62
2023/05/26 00:40:19;;;;;;;21.03;6.40;;;13.10;71.10;;;15.87;49.63;102806.91;5053840;28;20593;-63
2023/05/26 00:42:46;;;;;;;16.60;5.63;;;13.10;71.20;;;15.85;49.68;102805.38;5051832;28;20264;-63
2023/05/26 00:45:13;;;;;;;19.73;5.07;;;13.10;71.30;;;15.86;49.79;102807.88;5053514;28;20241;-61
2023/05/26 00:47:41;;;;;;;21.33;5.47;;;13.10;71.20;;;15.83;49.69;102810.84;5053793;28;20197;-61
2023/05/26 00:50:12;;;;;;;23.00;5.87;;;13.10;71.10;;;15.83;49.75;102810.84;5053543;28;20185;-66
2023/05/26 00:52:40;;;;;;;18.10;5.37;;;13.00;71.00;;;15.83;49.47;102808.19;5053770;28;20190;-61
2023/05/26 00:55:09;;;;;;;17.50;5.17;;;13.00;71.10;;;15.81;49.46;102807.50;5050465;28;20630;-62
2023/05/26 00:57:37;;;;;;;17.03;5.03;;;13.00;71.20;;;15.79;49.44;102817.47;5034613;28;20194;-63
2023/05/26 01:00:08;;;;;;;17.07;5.10;;;13.00;70.90;;;15.78;49.72;102815.81;5053755;28;20186;-64
2023/05/26 01:02:37;;;;;;;16.77;5.90;;;13.00;71.00;;;15.78;49.83;102814.97;5049294;28;20607;-63
2023/05/26 01:05:08;;;;;;;11.07;4.90;;;13.00;71.20;;;15.77;50.27;102813.28;5053444;28;20681;-63
2023/05/26 01:07:36;;;;;;;17.53;5.80;;;13.00;71.90;;;15.77;49.67;102818.59;5053380;28;20508;-63
2023/05/26 01:10:04;;;;;;;15.70;5.60;;;13.00;71.00;;;15.76;49.62;102816.97;5053678;28;20244;-63
2023/05/26 01:12:38;;;;;;;16.37;5.30;;;12.90;70.90;;;15.73;49.43;102812.78;5053267;28;20212;-63
2023/05/26 01:15:11;;;;;;;13.80;5.13;;;13.00;70.90;;;15.72;49.67;102816.44;5054267;28;20219;-63
2023/05/26 01:17:56;;;;;;;19.97;5.30;;;12.90;71.00;;;15.70;49.60;102813.09;5057782;28;20232;-62
2023/05/26 01:20:31;;;;;;;15.87;5.00;;;12.90;70.70;;;15.69;49.79;102814.06;5057230;28;20897;-62
2023/05/26 01:23:33;;;;;;;16.67;4.97;;;12.90;70.80;;;15.65;49.67;102807.44;5057088;28;20201;-60
2023/05/26 01:26:36;;;;;;;24.30;5.20;;;12.90;70.80;;;15.63;49.35;102812.06;5037351;28;20570;-60
2023/05/26 01:29:10;;;;;;;18.27;5.20;;;12.90;70.60;;;15.66;49.53;102821.53;5049301;28;20186;-62
2023/05/26 01:31:39;;;;;;;16.83;5.43;;;12.90;70.50;;;15.66;49.39;102824.19;5055393;28;20240;-62
2023/05/26 01:34:07;;;;;;;17.00;5.87;;;12.90;70.30;;;15.68;49.53;102827.53;5056697;28;20305;-63
2023/05/26 01:36:37;;;;;;;15.07;5.00;;;12.90;70.70;;;15.70;49.50;102829.03;5057262;28;20670;-63
2023/05/26 01:39:07;;;;;;;12.67;5.07;;;12.90;70.40;;;15.69;49.25;102832.66;5043237;28;20237;-62
2023/05/26 01:41:44;;;;;;;13.87;5.37;;;12.90;70.20;;;15.66;49.28;102832.16;5037255;28;20195;-63
2023/05/26 01:44:23;;;;;;;15.23;5.30;;;12.90;70.10;;;15.60;49.34;102844.22;5037783;28;20712;-63
2023/05/26 01:46:51;;;;;;;13.90;5.20;;;12.80;70.00;;;15.59;49.29;102837.25;5036894;28;20187;-61
2023/05/26 01:49:26;;;;;;;13.97;5.70;;;12.80;70.30;;;15.57;49.53;102841.88;5048382;28;20206;-61
2023/05/26 01:51:57;;;;;;;13.33;4.53;;;12.80;70.20;;;15.55;49.09;102846.50;5056825;28;20189;-61
2023/05/26 01:54:31;;;;;;;17.17;5.37;;;12.80;70.20;;;15.53;49.46;102843.19;5055403;28;20206;-61
2023/05/26 01:56:58;;;;;;;18.30;5.33;;;12.70;70.10;;;15.51;49.32;102840.69;5056817;28;20221;-63
2023/05/26 01:59:28;;;;;;;21.17;5.97;;;12.70;70.00;;;15.48;49.23;102848.13;5054829;28;20198;-62
2023/05/26 02:01:55;;;;;;;19.53;6.13;;;12.70;70.00;;;15.47;49.15;102846.47;5056731;28;20197;-63
2023/05/26 02:04:22;;;;;;;18.20;5.50;;;12.70;70.20;;;15.44;49.24;102849.38;5055878;28;20217;-65
2023/05/26 02:06:51;;;;;;;14.00;5.07;;;12.60;70.00;;;15.41;49.18;102850.53;5053338;28;20194;-63
2023/05/26 02:09:18;;;;;;;13.97;5.37;;;12.60;70.10;;;15.40;49.29;102853.34;5056527;28;20224;-63
2023/05/26 02:11:47;;;;;;;17.87;6.40;;;12.60;70.00;;;15.38;49.39;102860.63;5056575;28;20276;-63
2023/05/26 02:14:14;;;;;;;16.33;5.10;;;12.60;70.40;;;15.38;49.07;102860.63;5054027;28;20296;-63
2023/05/26 02:16:44;;;;;;;20.77;5.97;;;12.60;70.10;;;15.36;49.24;102863.41;5036409;28;20607;-63
2023/05/26 02:19:10;;;;;;;25.00;5.17;;;12.50;70.30;;;15.34;49.28;102864.56;5041123;28;20638;-64
2023/05/26 02:21:37;;;;;;;30.53;6.43;;;12.50;70.20;;;15.31;49.50;102865.69;5056475;28;20193;-63
2023/05/26 02:24:05;;;;;;;19.87;5.50;;;12.50;70.30;;;15.29;49.08;102862.38;5055804;28;20596;-62
2023/05/26 02:26:32;;;;;;;14.53;5.37;;;12.50;70.10;;;15.27;49.31;102860.84;5055077;28;20181;-65
2023/05/26 02:28:59;;;;;;;18.97;5.03;;;12.50;70.10;;;15.26;49.29;102856.53;5039913;28;20212;-63
2023/05/26 02:31:26;;;;;;;18.97;5.00;;;12.40;70.20;;;15.23;49.33;102855.03;5035674;28;20535;-61
2023/05/26 02:33:56;;;;;;;18.73;5.10;;;12.40;70.20;;;15.23;49.45;102856.84;5043428;28;20193;-62
2023/05/26 02:36:23;;;;;;;14.43;5.33;;;12.40;70.30;;;15.22;49.27;102860.47;5056176;28;20761;-59
2023/05/26 02:38:50;;;;;;;17.77;5.20;;;12.40;70.30;;;15.22;49.39;102863.13;5056541;28;20662;-62
2023/05/26 02:41:17;;;;;;;23.43;5.50;;;12.40;70.20;;;15.20;49.29;102862.44;5054734;28;20225;-63
2023/05/26 02:43:44;;;;;;;14.27;4.43;;;12.40;70.10;;;15.20;49.50;102867.75;5035545;28;20273;-63
2023/05/26 02:46:11;;;;;;;20.97;6.37;;;12.40;70.20;;;15.22;49.41;102871.09;5049898;28;20301;-62
2023/05/26 02:48:38;;;;;;;13.97;5.13;;;12.40;70.30;;;15.22;49.31;102866.63;5042649;28;20205;-65
2023/05/26 02:51:07;;;;;;;14.40;4.43;;;12.40;70.10;;;15.22;49.58;102860.47;5036128;28;20199;-63
2023/05/26 02:53:34;;;;;;;18.10;4.70;;;12.40;70.60;;;15.27;49.46;102866.16;5035857;28;20201;-63
2023/05/26 02:56:02;;;;;;;15.10;5.10;;;12.50;70.30;;;15.30;49.40;102874.66;5036766;28;20245;-62
2023/05/26 02:58:29;;;;;;;21.30;5.50;;;12.50;70.10;;;15.32;49.34;102871.84;5036010;28;20281;-63
2023/05/26 03:00:56;;;;;;;13.47;4.67;;;12.50;69.80;;;15.32;49.33;102867.38;5039620;28;20197;-63
2023/05/26 03:03:23;;;;;;;21.07;5.30;;;12.50;70.10;;;15.35;49.67;102866.22;5054959;28;20780;-62
2023/05/26 03:05:51;;;;;;;16.43;5.43;;;12.60;70.00;;;15.40;49.27;102867.41;5046031;28;20678;-63
2023/05/26 03:08:19;;;;;;;16.37;5.30;;;12.70;69.70;;;15.44;49.12;102871.50;5055248;28;20213;-63
2023/05/26 03:10:46;;;;;;;17.90;5.53;;;12.70;69.50;;;15.47;48.82;102867.69;5053916;28;20559;-63
2023/05/26 03:13:33;;;;;;;16.97;4.93;;;12.70;69.40;;;15.50;48.58;102862.91;5036899;28;20201;-61
2023/05/26 03:16:00;;;;;;;15.37;5.33;;;12.80;68.90;;;15.49;48.44;102871.88;5049015;28;20218;-65
2023/05/26 03:18:27;;;;;;;17.67;4.23;;;12.70;68.40;;;15.43;48.31;102868.94;5035160;28;20195;-65
2023/05/26 03:20:55;;;;;;;16.47;5.43;;;12.70;68.30;;;15.36;48.58;102876.69;5054221;28;20244;-63
2023/05/26 03:23:27;;;;;;;17.40;4.90;;;12.60;68.60;;;15.33;48.76;102874.34;5054777;28;20543;-62
2023/05/26 03:25:54;;;;;;;20.00;6.10;;;12.60;68.80;;;15.32;48.60;102871.84;5054677;28;20228;-63
2023/05/26 03:28:21;;;;;;;15.67;5.17;;;12.50;68.80;;;15.26;48.54;102869.81;5040295;28;20218;-62
2023/05/26 03:30:48;;;;;;;15.63;4.10;;;12.50;68.80;;;15.22;48.54;102876.38;5035944;28;20547;-63
2023/05/26 03:33:15;;;;;;;18.00;5.60;;;12.50;69.00;;;15.19;48.65;102868.75;5034815;28;20209;-62
2023/05/26 03:35:42;;;;;;;15.47;5.30;;;12.40;69.10;;;15.18;48.94;102881.19;5051178;28;20217;-60
2023/05/26 03:38:09;;;;;;;19.87;5.30;;;12.40;69.30;;;15.17;49.12;102868.88;5052981;28;20189;-62
2023/05/26 03:40:38;;;;;;;18.87;5.60;;;12.40;70.20;;;15.18;49.05;102881.19;5055107;28;20219;-62
2023/05/26 03:43:05;;;;;;;18.47;5.27;;;12.40;69.50;;;15.18;49.19;102880.34;5035263;28;20215;-62
2023/05/26 03:45:32;;;;;;;14.33;4.77;;;12.40;69.50;;;15.16;48.79;102877.84;5034778;28;20218;-63
2023/05/26 03:47:59;;;;;;;15.43;4.83;;;12.40;69.20;;;15.14;49.17;102884.28;5052327;28;20203;-62
2023/05/26 03:50:26;;;;;;;12.83;5.27;;;12.40;69.70;;;15.16;49.49;102887.63;5054453;28;20549;-63
2023/05/26 03:52:53;;;;;;;13.43;4.87;;;12.40;70.20;;;15.22;49.27;102889.66;5056608;28;20276;-63
2023/05/26 03:55:20;;;;;;;19.10;5.20;;;12.50;70.20;;;15.30;49.58;102889.75;5058396;28;20209;-63
2023/05/26 03:57:48;;;;;;;14.43;5.90;;;12.50;69.90;;;15.38;49.12;102887.16;5058167;28;20254;-62
2023/05/26 04:00:16;;;;;;;12.63;4.87;;;12.60;69.90;;;15.47;48.94;102888.94;5040194;28;20202;-64
2023/05/26 04:02:43;;;;;;;17.47;4.67;;;12.70;69.60;;;15.56;48.66;102894.16;5056700;28;20197;-63
2023/05/26 04:05:12;;;;;;;17.60;4.90;;;12.80;69.10;;;15.62;48.41;102890.03;5060655;28;20260;-63
2023/05/26 04:07:39;;;;;;;18.47;5.07;;;12.90;68.70;;;15.65;48.24;102895.03;5063297;28;20216;-63
2023/05/26 04:10:07;;;;;;;17.30;5.40;;;12.90;68.50;;;15.69;48.05;102901.69;5058381;28;20197;-61
2023/05/26 04:12:34;;;;;;;14.43;4.97;;;12.90;68.00;;;15.70;47.93;102898.06;5052537;28;20240;-63
2023/05/26 04:15:02;;;;;;;15.27;5.77;;;12.90;68.30;;;15.74;48.16;102894.09;5049800;28;20289;-61
2023/05/26 04:17:31;;;;;;;13.37;4.73;;;13.00;68.40;;;15.80;47.98;102893.50;5040853;28;20593;-62
2023/05/26 04:19:59;;;;;;;15.40;4.87;;;13.00;68.10;;;15.88;47.81;102898.03;5040761;28;20194;-63
2023/05/26 04:22:27;;;;;;;13.43;5.23;;;13.10;68.80;;;15.93;47.91;102909.00;5038460;28;20202;-62
2023/05/26 04:24:54;;;;;;;19.67;6.00;;;13.10;67.60;;;15.96;47.69;102906.03;5044250;28;20598;-63
2023/05/26 04:27:24;;;;;;;15.73;4.83;;;13.20;67.80;;;16.02;47.59;102913.41;5033803;28;20222;-63
2023/05/26 04:29:52;;;;;;;18.17;6.47;;;13.20;67.60;;;16.05;47.62;102913.91;5033987;28;20190;-62
2023/05/26 04:32:21;;;;;;;15.33;5.27;;;13.30;67.30;;;16.09;47.00;102909.94;5034725;28;20198;-63
2023/05/26 04:34:49;;;;;;;16.43;5.40;;;13.30;67.20;;;16.10;46.90;102911.63;5042929;28;20217;-63
2023/05/26 04:37:16;;;;;;;14.60;4.30;;;13.30;66.80;;;16.08;46.82;102913.59;5051481;28;20230;-64
2023/05/26 04:39:43;;;;;;;22.00;6.23;;;13.30;66.70;;;16.03;47.15;102905.25;5033815;28;20182;-62
2023/05/26 04:42:12;;;;;;;13.37;4.70;;;13.20;67.10;;;16.04;47.38;102906.94;5033570;28;20689;-62
2023/05/26 04:44:40;;;;;;;17.60;5.70;;;13.20;67.30;;;16.07;47.30;102911.09;5033275;28;20218;-63
2023/05/26 04:47:08;;;;;;;15.07;5.10;;;13.30;67.50;;;16.11;47.49;102923.09;5034596;28;20293;-62
2023/05/26 04:49:37;;;;;;;10.37;5.13;;;13.30;67.50;;;16.14;47.22;102926.25;5033189;28;20195;-62
2023/05/26 04:52:04;;;;;;;12.90;4.70;;;13.30;67.50;;;16.20;47.35;102928.28;5033775;28;20278;-63
2023/05/26 04:54:34;;;;;;;19.53;5.60;;;13.40;67.40;;;16.24;47.24;102931.44;5044423;28;20217;-61
2023/05/26 04:57:01;;;;;;;16.87;5.60;;;13.40;67.40;;;16.33;47.27;102929.69;5052360;28;20253;-62
2023/05/26 04:59:29;;;;;;;13.17;5.07;;;13.50;67.30;;;16.37;46.94;102928.38;5053013;28;20645;-63
2023/05/26 05:01:56;;;;;;;17.47;5.43;;;13.60;66.90;;;16.38;47.15;102936.19;5045208;28;20190;-64
2023/05/26 05:04:23;;;;;;;12.23;4.70;;;13.60;67.00;;;16.43;46.94;102933.88;5048566;28;20210;-61
2023/05/26 05:06:52;;;;;;;16.50;5.80;;;13.70;66.90;;;16.45;46.54;102941.72;5053226;28;20269;-64
2023/05/26 05:09:18;;;;;;;11.00;4.77;;;13.70;66.30;;;16.46;47.19;102940.72;5052226;28;20228;-63
2023/05/26 05:11:46;;;;;;;14.90;4.80;;;13.70;66.70;;;16.52;46.66;102938.28;5050037;28;20232;-62
2023/05/26 05:14:13;;;;;;;15.77;5.83;;;13.70;66.60;;;16.59;46.82;102952.59;5036259;28;20698;-63
2023/05/26 05:16:41;;;;;;;18.90;5.80;;;13.70;66.40;;;16.68;46.51;102945.50;5053293;28;20231;-64
2023/05/26 05:19:09;;;;;;;15.37;5.13;;;13.80;66.70;;;16.77;46.17;102958.69;5053219;28;20190;-66
2023/05/26 05:21:36;;;;;;;14.83;4.90;;;13.90;66.70;;;16.88;46.13;102950.41;5052560;28;20273;-63
2023/05/26 05:24:05;;;;;;;15.33;5.23;;;13.90;66.20;;;17.00;45.98;102953.59;5052906;28;20190;-63
2023/05/26 05:26:32;;;;;;;13.63;5.10;;;14.00;65.70;;;17.04;45.39;102960.28;5042967;28;20282;-62
2023/05/26 05:28:59;;;;;;;15.53;5.13;;;14.00;65.50;;;17.07;45.47;102953.78;5032784;28;20583;-65
2023/05/26 05:31:25;;;;;;;12.37;5.07;;;14.00;65.50;;;17.09;45.40;102957.94;5042652;28;20625;-64
2023/05/26 05:33:52;;;;;;;17.00;6.57;;;14.10;65.30;;;17.11;45.20;102965.78;5052108;28;20293;-62
2023/05/26 05:36:19;;;;;;;11.93;4.87;;;14.10;64.90;;;17.17;45.06;102960.63;5052290;28;20212;-64
2023/05/26 05:38:46;;;;;;;12.30;4.40;;;14.20;65.00;;;17.25;45.07;102963.31;5052837;28;20268;-63
2023/05/26 05:41:15;;;;;;;13.80;4.73;;;14.30;65.10;;;17.35;44.89;102969.28;5052781;28;20204;-63
2023/05/26 05:43:42;;;;;;;20.03;6.03;;;14.30;64.90;;;17.44;44.63;102973.66;5052815;28;20257;-63
2023/05/26 05:46:09;;;;;;;14.37;5.67;;;14.40;64.80;;;17.53;44.63;102975.38;5052629;28;20574;-63
2023/05/26 05:48:39;;;;;;;17.30;7.33;;;14.50;64.30;;;17.58;44.41;102975.72;5052838;28;20272;-63
2023/05/26 05:51:06;;;;;;;12.73;5.10;;;14.50;64.20;;;17.62;44.21;102980.69;5046859;28;20308;-63
2023/05/26 05:53:33;;;;;;;19.70;6.33;;;14.60;64.10;;;17.68;44.02;102990.69;5039400;28;20201;-64
2023/05/26 05:56:00;;;;;;;13.90;5.13;;;14.60;63.70;;;17.72;44.20;102992.00;5034384;28;20242;-63
2023/05/26 05:58:31;;;;;;;19.40;5.50;;;14.60;63.70;;;17.77;43.99;102995.00;5033644;28;20197;-66
2023/05/26 06:00:58;;;;;;;21.80;5.53;;;14.70;63.80;;;17.80;43.91;103000.03;5038482;28;20202;-62
2023/05/26 06:03:25;;;;;;;17.67;5.13;;;14.80;63.60;;;17.80;43.83;102989.38;5047593;28;20229;-65
2023/05/26 06:05:53;;;;;;;14.47;5.43;;;14.80;63.40;;;17.82;43.61;103000.69;5046798;28;20229;-62
2023/05/26 06:08:20;;;;;;;19.23;5.43;;;14.80;63.00;;;17.77;43.48;102995.00;5056049;28;20252;-63
2023/05/26 06:10:47;;;;;;;16.33;4.90;;;14.80;62.60;;;17.78;43.76;102996.69;5056730;28;20263;-63
2023/05/26 06:13:14;;;;;;;15.73;4.47;;;14.90;62.80;;;17.87;43.80;103006.34;5054924;28;20194;-63
2023/05/26 06:15:42;;;;;;;17.43;5.40;;;14.90;62.90;;;17.98;43.48;102998.00;5055240;28;20314;-63
2023/05/26 06:18:09;;;;;;;10.50;3.93;;;14.90;62.60;;;18.03;43.37;102996.50;5055391;28;20615;-63
2023/05/26 06:20:36;;;;;;;13.63;5.13;;;14.90;62.50;;;18.12;43.07;102994.66;5055522;28;20589;-63
2023/05/26 06:23:04;;;;;;;14.87;5.20;;;14.90;62.50;;;18.16;42.94;102990.69;5055514;28;20198;-65
2023/05/26 06:25:30;;;;;;;21.80;5.80;;;14.90;62.20;;;18.16;42.80;103001.34;5055856;28;20213;-62
2023/05/26 06:27:57;;;;;;;18.33;5.67;;;14.90;62.10;;;18.15;42.81;103007.66;5054579;28;20280;-66
2023/05/26 06:30:24;;;;;;;16.80;5.40;;;15.00;62.20;;;18.15;42.99;103005.00;5042862;28;20209;-64
2023/05/26 06:32:53;;;;;;;14.97;5.30;;;15.00;63.10;;;18.22;42.80;103003.31;5039326;28;20190;-63
2023/05/26 06:35:21;;;;;;;14.40;4.63;;;15.10;62.20;;;18.21;42.59;102996.31;5050030;28;20321;-64
2023/05/26 06:37:47;;;;;;;13.83;5.00;;;15.10;61.40;;;18.23;42.84;103002.34;5055730;28;20214;-64
2023/05/26 06:40:16;;;;;;;13.73;5.23;;;15.20;61.70;;;18.33;42.87;103002.97;5054558;28;20672;-63
2023/05/26 06:42:43;;;;;;;18.30;6.27;;;15.20;61.70;;;18.38;42.67;103002.44;5042253;28;20612;-63
2023/05/26 06:45:10;;;;;;;12.93;5.43;;;15.30;61.10;;;18.40;42.30;103003.13;5045020;28;20252;-66
2023/05/26 06:47:37;;;;;;;13.83;4.43;;;15.30;61.10;;;18.42;42.49;102995.78;5035855;28;20194;-62
2023/05/26 06:50:08;;;;;;;16.90;5.40;;;15.30;61.30;;;18.49;42.18;103002.97;5035326;28;20239;-63
2023/05/26 06:52:35;;;;;;;20.43;5.97;;;15.40;61.10;;;18.58;42.21;103001.94;5035651;28;20273;-62
2023/05/26 06:55:03;;;;;;;13.80;4.60;;;15.50;61.30;;;18.70;42.05;103007.75;5050710;28;20283;-63
2023/05/26 06:57:30;;;;;;;13.33;5.90;;;15.50;60.90;;;18.77;41.52;103006.88;5054836;28;20213;-63
2023/05/26 06:59:57;;;;;;;12.60;5.27;;;15.60;60.30;;;18.80;41.64;103014.53;5039190;28;20602;-63
2023/05/26 07:02:24;;;;;;;14.50;5.13;;;15.70;60.60;;;18.94;41.35;103019.13;5055229;28;20248;-64
2023/05/26 07:04:51;;;;;;;17.03;5.37;;;15.70;59.70;;;19.02;41.20;103010.28;5054826;28;20213;-63
2023/05/26 07:07:19;;;;;;;12.20;4.57;;;15.80;59.50;;;19.11;40.70;103011.09;5054499;28;20186;-64
2023/05/26 07:09:46;;;;;;;17.23;9.13;;;15.80;59.40;;;19.18;40.67;103010.22;5055330;28;20293;-65
2023/05/26 07:12:13;;;;;;;12.33;5.80;;;15.90;59.70;;;19.31;40.42;103012.28;5052748;28;20559;-63
2023/05/26 07:14:40;;;;;;;15.47;6.13;;;16.00;58.60;;;19.40;39.96;103021.94;5042298;28;20288;-65
2023/05/26 07:17:08;;;;;;;11.80;4.93;;;16.10;58.40;;;19.50;39.91;103022.56;5053874;28;20245;-63
2023/05/26 07:19:34;;;;;;;14.53;4.80;;;16.10;58.50;;;19.59;39.64;103024.16;5054850;28;20182;-65
2023/05/26 07:22:02;;;;;;;15.03;4.80;;;16.20;57.90;;;19.71;39.24;103017.41;5053873;28;20194;-63
2023/05/26 07:24:30;;;;;;;13.03;4.67;;;16.30;57.80;;;19.86;39.10;103028.16;5054474;28;20230;-63
2023/05/26 07:26:57;;;;;;;12.60;4.67;;;16.40;58.00;;;20.01;38.51;103021.84;5053315;28;20196;-63
2023/05/26 07:29:24;;;;;;;16.37;5.37;;;16.50;57.30;;;20.10;37.89;103028.78;5034612;28;20198;-62
2023/05/26 07:31:51;;;;;;;17.00;5.07;;;16.60;56.10;;;20.12;37.76;103032.09;5034825;28;20273;-62
2023/05/26 07:34:18;;;;;;;17.23;7.60;;;16.70;55.90;;;20.10;38.00;103028.78;5039611;28;20222;-63
2023/05/26 07:36:45;;;;;;;11.43;5.47;;;16.70;55.70;;;20.08;37.87;103025.47;5054068;28;20216;-63
2023/05/26 07:39:12;;;;;;;15.20;5.30;;;16.70;55.90;;;20.08;37.72;103030.81;5054183;28;20614;-63
2023/05/26 07:41:40;;;;;;;11.47;4.97;;;16.70;55.60;;;20.13;37.58;103017.69;5049616;28;20548;-65
2023/05/26 07:44:07;;;;;;;13.77;4.60;;;16.70;55.80;;;20.23;37.42;103022.81;5033740;28;20244;-63
2023/05/26 07:46:34;;;;;;;11.50;4.63;;;16.80;55.20;;;20.30;37.13;103022.94;5034034;28;20211;-62
2023/05/26 07:49:01;;;;;;;19.17;5.80;;;16.80;54.90;;;20.38;37.01;103020.19;5034149;28;20522;-63
2023/05/26 07:51:28;;;;;;;15.50;7.30;;;16.90;54.90;;;20.49;37.35;103017.88;5034355;28;20218;-64
2023/05/26 07:53:55;;;;;;;18.33;5.27;;;16.90;54.70;;;20.55;36.89;103021.66;5034228;28;20217;-62
2023/05/26 07:56:23;;;;;;;12.07;4.90;;;17.00;54.70;;;20.66;36.64;103021.19;5042001;28;20569;-64
2023/05/26 07:58:51;;;;;;;17.00;5.53;;;17.10;54.70;;;20.78;36.61;103017.03;5054050;28;20652;-63
2023/05/26 08:01:18;;;;;;;15.17;5.13;;;17.10;54.30;;;20.88;36.21;103014.91;5053942;28;20663;-63
2023/05/26 08:03:47;;;;;;;15.13;5.97;;;17.20;54.20;;;21.00;36.31;103016.09;5053793;28;20200;-63
2023/05/26 08:06:14;;;;;;;13.83;5.03;;;17.30;53.90;;;21.06;35.76;103014.56;5053561;28;20189;-66
2023/05/26 08:08:53;;;;;;;13.93;5.60;;;17.30;53.70;;;21.82;35.30;103012.06;5052659;28;20178;-62
2023/05/26 08:11:23;;;;;;;13.73;4.73;;;17.50;54.60;;;23.09;33.89;103016.25;5052389;28;20282;-63
2023/05/26 08:13:52;;;;;;;8.90;4.30;;;17.90;54.20;;;24.46;32.23;103004.81;5037654;28;20186;-64
2023/05/26 08:16:19;;;;;;;11.00;5.33;;;18.50;53.40;;;25.62;29.31;102999.13;5041131;28;20248;-64
2023/05/26 08:18:46;;;;;;;15.80;4.93;;;19.20;50.70;;;26.15;28.66;103013.84;5033352;28;20226;-64
2023/05/26 08:21:13;;;;;;;11.90;4.67;;;19.80;49.30;;;26.01;28.28;103006.06;5033585;28;20194;-64
2023/05/26 08:23:41;;;;;;;10.10;4.60;;;20.20;46.40;;;25.40;27.96;103006.72;5043960;28;20202;-65
2023/05/26 08:26:08;;;;;;;11.30;5.07;;;20.30;45.60;;;24.80;29.46;103009.91;5033128;28;20622;-64
2023/05/26 08:28:35;;;;;;;13.70;6.70;;;20.30;45.50;;;24.32;29.19;102997.81;5033306;28;20666;-64
2023/05/26 08:31:03;;;;;;;10.03;5.57;;;20.10;44.50;;;24.52;29.83;103007.50;5033611;28;20305;-64
2023/05/26 08:33:31;;;;;;;13.27;5.50;;;19.90;45.40;;;25.30;28.67;103003.66;5033090;28;20277;-64
2023/05/26 08:35:57;;;;;;;11.97;4.60;;;20.10;46.00;;;26.35;27.84;103007.44;5052944;28;20296;-64
2023/05/26 08:38:24;;;;;;;8.73;4.47;;;20.60;45.70;;;27.30;26.76;102995.88;5045020;28;20253;-63
2023/05/26 08:40:57;;;;;;;13.63;5.77;;;21.20;45.30;;;27.44;25.96;103000.06;5043416;28;20220;-64
2023/05/26 08:43:36;;;;;;;11.77;4.97;;;21.70;42.70;;;27.01;26.44;103002.09;5052542;28;20198;-63
2023/05/26 08:46:15;;;;;;;10.00;5.03;;;21.80;41.40;;;26.34;26.97;103005.81;5053299;28;20181;-64
2023/05/26 08:48:44;;;;;;;13.87;5.20;;;21.80;41.30;;;25.76;27.41;102999.84;5053153;28;20194;-66
2023/05/26 08:51:12;;;;;;;11.60;4.07;;;21.60;41.50;;;25.29;27.95;103010.09;5052775;28;20218;-64
2023/05/26 08:53:40;;;;;;;12.93;4.43;;;21.40;42.50;;;25.09;28.10;103008.53;5042521;28;20613;-64
2023/05/26 08:56:09;;;;;;;10.17;4.23;;;21.10;42.10;;;24.80;28.92;103007.22;5046714;28;20612;-65
2023/05/26 08:58:38;;;;;;;8.70;5.10;;;20.90;42.50;;;24.65;29.03;103007.44;5032859;28;20248;-63
2023/05/26 09:01:05;;;;;;;10.00;5.93;;;20.70;42.30;;;24.91;29.02;103005.75;5040408;28;20201;-64
2023/05/26 09:03:34;;;;;;;15.97;6.20;;;20.70;42.90;;;25.18;28.67;103009.94;5034694;28;20203;-63
2023/05/26 09:06:01;;;;;;;11.63;5.60;;;20.70;42.80;;;25.63;27.26;103008.03;5034934;28;20658;-66
2023/05/26 09:08:29;;;;;;;9.13;4.80;;;20.70;41.90;;;26.43;27.05;102999.88;5049994;28;20300;-63
2023/05/26 09:10:56;;;;;;;20.07;14.10;;;20.90;42.80;;;27.29;26.55;103002.34;5045964;28;20198;-65
2023/05/26 09:13:23;;;;;;;10.93;7.03;;;21.40;43.40;;;28.19;25.20;103004.66;5042934;28;20297;-63
2023/05/26 09:15:53;;;;;;;7.73;4.83;;;21.90;41.50;;;29.37;24.23;102988.69;5051088;28;20216;-64
2023/05/26 09:18:42;;;;;;;9.07;4.33;;;22.40;41.40;;;30.83;22.68;102999.00;5053337;28;20205;-64
2023/05/26 09:21:09;;;;;;;10.40;4.60;;;23.20;39.40;;;31.41;22.15;102992.03;5053657;28;20236;-64
2023/05/26 09:23:36;;;;;;;13.07;5.20;;;23.80;38.50;;;32.02;21.50;102986.00;5046614;28;20236;-63
2023/05/26 09:26:06;;;;;;;13.40;5.30;;;24.40;37.50;;;31.82;20.21;102985.84;5033267;28;20272;-64
2023/05/26 09:28:33;;;;;;;10.33;4.73;;;24.70;35.10;;;30.95;21.70;102992.66;5034538;28;20651;-64
2023/05/26 09:31:00;;;;;;;10.10;5.20;;;24.70;35.50;;;29.90;22.29;102990.13;5033150;28;20229;-64
2023/05/26 09:33:27;;;;;;;10.50;5.33;;;24.50;35.20;;;29.36;23.09;102999.75;5031775;28;20201;-64
2023/05/26 09:35:55;;;;;;;16.47;6.20;;;24.30;36.00;;;29.75;23.06;102989.84;5055676;28;20221;-63
2023/05/26 09:38:23;;;;;;;11.40;5.13;;;24.30;35.90;;;30.59;22.56;102992.22;5050490;28;20214;-64
2023/05/26 09:40:50;;;;;;;14.13;5.83;;;24.30;36.20;;;31.69;21.44;102997.19;5036242;28;20195;-64
2023/05/26 09:43:19;;;;;;;10.43;4.87;;;24.70;35.50;;;32.82;19.94;102990.22;5038983;28;20219;-64
2023/05/26 09:45:46;;;;;;;12.27;5.20;;;25.20;35.20;;;33.56;18.89;102987.94;5056507;28;20218;-65
2023/05/26 09:48:14;;;;;;;11.80;5.47;;;25.60;32.80;;;33.74;18.50;102986.53;5055828;28;20198;-64
2023/05/26 09:50:42;;;;;;;11.07;5.50;;;25.90;32.00;;;34.19;18.47;102978.25;5054249;28;20244;-63
2023/05/26 09:53:10;;;;;;;7.83;3.80;;;26.30;32.10;;;34.43;17.64;102984.75;5036760;28;20186;-62
2023/05/26 09:55:40;;;;;;;8.30;4.73;;;26.80;30.00;;;34.84;17.23;102977.19;5036716;28;20285;-62
2023/05/26 09:58:10;;;;;;;10.93;4.93;;;27.20;29.80;;;35.27;17.53;102972.81;5036463;28;20289;-64
2023/05/26 10:00:40;;;;;;;11.17;5.07;;;27.60;30.10;;;35.20;16.53;102980.53;5047425;28;20285;-63
2023/05/26 10:03:08;;;;;;;8.20;4.47;;;27.70;28.50;;;34.67;17.08;102984.94;5055577;28;20289;-61
2023/05/26 10:05:39;;;;;;;5.47;3.93;;;27.60;28.70;;;33.48;17.97;102982.97;5055601;28;20221;-62
2023/05/26 10:08:08;;;;;;;8.83;4.40;;;27.30;28.70;;;32.50;18.90;102986.81;5055926;28;20194;-63
2023/05/26 10:10:38;;;;;;;10.50;4.87;;;26.90;29.20;;;32.51;18.87;102988.47;5053086;28;20243;-64